Richgrove, California
Current Conditions -  °F | °C
As of 12:15 AM on Tuesday 27 Jan 2015 (Local Time) from KPTV Reporting Station
Overcast Overcast  
Wind Chill: 52°   Ceiling: 8000
Heat Index: 52°   Visibility: 2.5mi
Dew Point: 48°   Wind: 3mph
Humidity: 88%   Direction: 180°S
Pressure: 30.1"   Gusts: NA
Location:  35.8°N, 119.11°W
Report Text: KPTV 270815Z AUTO 18003KT 2 1/2SM OVC080 11/09 A3010 RMK AO1
Loading
Personal Weather Stations






























Interactive Weather Map New forecast layout! Learn more

10-Day Weather Forecast

Advertisements
Track Severe Weather on mobile